createdAt,value
2018-01-04T00:02:18.792Z,5.50
2018-01-04T00:04:53.442Z,5.45
2018-01-04T00:07:27.824Z,0.80
2018-01-04T00:10:03.032Z,1.67
2018-01-04T00:12:37.544Z,0.68
2018-01-04T00:15:11.977Z,1.48
2018-01-04T00:17:46.417Z,2.05
2018-01-04T00:20:20.919Z,2.25
2018-01-04T00:22:55.471Z,4.55
2018-01-04T00:25:29.894Z,2.85
2018-01-04T00:28:05.165Z,2.50
2018-01-04T00:30:39.639Z,2.78
2018-01-04T00:33:14.145Z,8.75
2018-01-04T00:35:49.383Z,3.10
2018-01-04T00:38:24.640Z,3.42
2018-01-04T00:40:59.069Z,1.00
2018-01-04T00:43:33.552Z,5.50
2018-01-04T00:46:07.895Z,1.77
2018-01-04T00:48:42.523Z,1.92
2018-01-04T00:51:17.820Z,6.32
2018-01-04T00:53:52.141Z,9.27
2018-01-04T00:56:26.524Z,3.40
2018-01-04T00:59:01.003Z,1.92
2018-01-04T01:01:35.412Z,11.70
2018-01-04T01:04:09.803Z,6.07
2018-01-04T01:06:44.997Z,0.65
2018-01-04T01:09:19.379Z,0.40
2018-01-04T01:11:53.726Z,0.82
2018-01-04T01:14:28.971Z,1.08
2018-01-04T01:17:03.373Z,1.65
2018-01-04T01:19:37.794Z,1.35
2018-01-04T01:22:12.132Z,0.60
2018-01-04T01:24:46.589Z,3.25
2018-01-04T01:27:21.769Z,2.45
2018-01-04T01:29:56.233Z,3.40
2018-01-04T01:32:30.608Z,7.62
2018-01-04T01:35:05.154Z,1.67
2018-01-04T01:37:39.534Z,0.60
2018-01-04T01:40:14.124Z,2.12
2018-01-04T01:42:48.583Z,1.70
2018-01-04T01:45:22.926Z,0.80
2018-01-04T01:47:57.454Z,1.02
2018-01-04T01:50:31.986Z,0.50
2018-01-04T01:53:06.381Z,6.07
2018-01-04T01:55:41.988Z,3.53
2018-01-04T01:58:16.530Z,2.70
2018-01-04T02:00:50.940Z,3.70
2018-01-04T02:03:25.402Z,0.50
2018-01-04T02:06:00.530Z,15.50
2018-01-04T02:08:34.967Z,0.60
2018-01-04T02:11:09.412Z,1.15
2018-01-04T02:13:43.796Z,3.50
2018-01-04T02:16:22.474Z,1.80
2018-01-04T02:19:08.891Z,1.20
2018-01-04T02:21:55.390Z,1.45
2018-01-04T02:27:40.406Z,5.65
2018-01-04T02:30:26.955Z,3.60
2018-01-04T02:36:14.335Z,3.53
2018-01-04T02:38:51.602Z,2.47
2018-01-04T02:44:33.668Z,1.80
2018-01-04T02:47:08.071Z,1.08
2018-01-04T02:49:42.251Z,0.70
2018-01-04T02:52:16.577Z,1.35
2018-01-04T02:54:50.787Z,0.50
2018-01-04T02:57:24.951Z,2.17
2018-01-04T02:59:59.880Z,1.60
2018-01-04T03:02:34.085Z,2.35
2018-01-04T03:05:08.352Z,2.67
2018-01-04T03:07:43.324Z,7.50
2018-01-04T03:10:18.264Z,13.30
2018-01-04T03:12:52.543Z,1.60
2018-01-04T03:15:26.752Z,0.65
2018-01-04T03:18:00.943Z,2.28
2018-01-04T03:20:35.112Z,3.72
2018-01-04T03:23:15.110Z,1.52
2018-01-04T03:25:54.957Z,2.50
2018-01-04T03:28:34.850Z,2.83
2018-01-04T03:31:14.905Z,1.50
2018-01-04T03:33:54.891Z,12.50
2018-01-04T03:36:35.590Z,0.40
2018-01-04T03:39:15.507Z,0.45
2018-01-04T03:44:41.474Z,1.67
2018-01-04T03:50:23.659Z,1.25
2018-01-04T03:52:58.006Z,4.32
2018-01-04T03:55:37.835Z,2.53
2018-01-04T03:58:12.180Z,0.50
2018-01-04T04:00:52.300Z,1.20
2018-01-04T04:03:27.185Z,9.68
2018-01-04T04:06:08.138Z,1.75
2018-01-04T04:08:44.288Z,1.40
2018-01-04T04:11:18.594Z,2.28
2018-01-04T04:13:52.819Z,1.60
2018-01-04T04:16:26.961Z,2.33
2018-01-04T04:19:01.287Z,7.10
2018-01-04T04:21:35.390Z,2.12
2018-01-04T04:24:10.392Z,24.12
2018-01-04T04:26:44.543Z,8.82
2018-01-04T04:29:18.840Z,13.13
2018-01-04T04:31:53.162Z,9.32
2018-01-04T04:34:27.334Z,1.48
2018-01-04T04:37:01.724Z,2.53
2018-01-04T04:39:35.927Z,2.10
2018-01-04T04:42:10.221Z,1.25
2018-01-04T04:44:44.394Z,0.60
2018-01-04T04:47:18.636Z,1.33
2018-01-04T04:49:52.934Z,0.95
2018-01-04T04:52:27.389Z,2.80
2018-01-04T04:55:01.521Z,1.65
2018-01-04T04:57:35.779Z,0.45
2018-01-04T05:00:10.126Z,0.98
2018-01-04T05:02:45.098Z,1.05
2018-01-04T05:05:19.336Z,2.80
2018-01-04T05:07:53.625Z,2.60
2018-01-04T05:10:27.734Z,6.12
2018-01-04T05:13:02.016Z,3.17
2018-01-04T05:15:36.163Z,0.70
2018-01-04T05:18:10.313Z,2.05
2018-01-04T05:20:44.510Z,7.32
2018-01-04T05:23:19.490Z,6.12
2018-01-04T05:25:53.650Z,3.62
2018-01-04T05:28:28.562Z,2.35
2018-01-04T05:31:02.812Z,0.68
2018-01-04T05:33:37.052Z,0.90
2018-01-04T05:36:11.276Z,1.30
2018-01-04T05:38:45.587Z,1.25
2018-01-04T05:41:19.695Z,2.15
2018-01-04T05:43:53.826Z,0.62
2018-01-04T05:46:27.915Z,1.50
2018-01-04T05:49:02.190Z,1.17
2018-01-04T05:51:36.334Z,2.25
2018-01-04T05:54:10.577Z,0.70
2018-01-04T05:56:44.852Z,8.32
2018-01-04T05:59:19.147Z,3.75
2018-01-04T06:01:53.345Z,6.55
2018-01-04T06:04:27.658Z,1.48
2018-01-04T06:07:05.868Z,3.53
2018-01-04T06:09:40.035Z,0.90
2018-01-04T06:12:14.311Z,1.87
2018-01-04T06:14:48.544Z,1.05
2018-01-04T06:17:22.825Z,3.12
2018-01-04T06:19:57.020Z,4.82
2018-01-04T06:22:31.116Z,3.78
2018-01-04T06:25:05.447Z,8.55
2018-01-04T06:27:39.643Z,1.42
2018-01-04T06:30:14.007Z,0.60
2018-01-04T06:32:48.337Z,6.37
2018-01-04T06:35:23.468Z,9.90
2018-01-04T06:37:57.592Z,3.92
2018-01-04T06:40:31.691Z,3.00
2018-01-04T06:43:05.987Z,1.80
2018-01-04T06:45:40.187Z,3.78
2018-01-04T06:48:15.149Z,0.40
2018-01-04T06:50:49.450Z,4.10
2018-01-04T06:53:24.364Z,2.83
2018-01-04T06:55:59.317Z,4.45
2018-01-04T06:58:33.502Z,3.67
2018-01-04T07:01:07.841Z,1.50
2018-01-04T07:03:42.130Z,1.70
2018-01-04T07:06:16.429Z,3.25
2018-01-04T07:08:50.704Z,1.15
2018-01-04T07:11:25.111Z,2.25
2018-01-04T07:13:59.271Z,3.25
2018-01-04T07:16:33.406Z,4.72
2018-01-04T07:19:07.605Z,3.28
2018-01-04T07:21:42.020Z,1.67
2018-01-04T07:24:16.187Z,1.77
2018-01-04T07:26:51.123Z,1.98
2018-01-04T07:29:25.435Z,1.05
2018-01-04T07:31:59.769Z,0.88
2018-01-04T07:34:34.667Z,3.62
2018-01-04T07:37:08.896Z,0.60
2018-01-04T07:39:43.094Z,1.02
2018-01-04T07:42:17.435Z,4.68
2018-01-04T07:44:51.837Z,4.57
2018-01-04T07:47:26.953Z,6.07
2018-01-04T07:50:01.518Z,2.58
2018-01-04T07:52:36.009Z,3.15
2018-01-04T07:55:10.401Z,2.25
2018-01-04T07:57:44.925Z,2.70
2018-01-04T08:00:19.375Z,3.55
2018-01-04T08:02:53.784Z,4.87
2018-01-04T08:05:28.345Z,2.65
2018-01-04T08:08:02.748Z,9.38
2018-01-04T08:10:37.248Z,5.82
2018-01-04T08:13:11.638Z,8.45
2018-01-04T08:15:46.189Z,9.07
2018-01-04T08:18:20.655Z,5.80
2018-01-04T08:20:55.754Z,4.28
2018-01-04T08:23:30.233Z,4.00
2018-01-04T08:26:04.872Z,1.23
2018-01-04T08:28:39.423Z,2.28
2018-01-04T08:31:13.933Z,6.35
2018-01-04T08:33:48.431Z,2.75
2018-01-04T08:36:22.784Z,6.22
2018-01-04T08:38:57.135Z,2.92
2018-01-04T08:41:31.634Z,1.20
2018-01-04T08:44:06.059Z,6.18
2018-01-04T08:46:40.474Z,4.32
2018-01-04T08:49:14.948Z,1.40
2018-01-04T08:51:49.991Z,5.18
2018-01-04T08:54:24.539Z,1.35
2018-01-04T08:56:59.056Z,3.30
2018-01-04T08:59:33.406Z,11.10
2018-01-04T09:02:07.934Z,3.00
2018-01-04T09:04:42.411Z,5.15
2018-01-04T09:07:16.969Z,1.30
2018-01-04T09:09:51.520Z,6.90
2018-01-04T09:12:25.907Z,5.12
2018-01-04T09:15:00.312Z,4.62
2018-01-04T09:17:35.435Z,5.45
2018-01-04T09:20:09.882Z,4.10
2018-01-04T09:22:44.376Z,7.93
2018-01-04T09:25:18.771Z,2.45
2018-01-04T09:27:53.323Z,6.62
2018-01-04T09:30:27.845Z,7.53
2018-01-04T09:33:02.429Z,6.93
2018-01-04T09:35:36.899Z,3.90
2018-01-04T09:38:11.270Z,7.62
2018-01-04T09:40:45.752Z,3.10
2018-01-04T09:43:20.265Z,2.20
2018-01-04T09:45:54.738Z,4.10
2018-01-04T09:48:29.107Z,3.15
2018-01-04T09:51:04.644Z,5.72
2018-01-04T09:53:39.069Z,2.28
2018-01-04T09:56:13.494Z,4.78
2018-01-04T09:58:47.953Z,4.20
2018-01-04T10:01:22.512Z,6.70
2018-01-04T10:03:56.846Z,2.65
2018-01-04T10:06:31.392Z,10.63
2018-01-04T10:09:05.908Z,15.05
2018-01-04T10:11:40.435Z,2.10
2018-01-04T10:14:15.009Z,1.80
2018-01-04T10:16:49.343Z,4.15
2018-01-04T10:19:23.782Z,3.62
2018-01-04T10:21:58.061Z,7.50
2018-01-04T10:24:32.430Z,4.82
2018-01-04T10:27:06.892Z,8.63
2018-01-04T10:29:41.237Z,1.90
2018-01-04T10:32:15.791Z,3.55
2018-01-04T10:34:50.354Z,5.10
2018-01-04T10:37:24.646Z,7.57
2018-01-04T10:39:59.018Z,5.03
2018-01-04T10:42:33.425Z,2.47
2018-01-04T10:45:07.801Z,4.30
2018-01-04T10:47:42.256Z,1.55
2018-01-04T10:50:17.027Z,2.75
2018-01-04T10:52:51.435Z,0.95
2018-01-04T10:55:25.940Z,3.03
2018-01-04T10:58:01.187Z,7.60
2018-01-04T11:00:35.742Z,5.45
2018-01-04T11:03:11.084Z,4.87
2018-01-04T11:05:45.732Z,2.72
2018-01-04T11:08:20.041Z,4.82
2018-01-04T11:10:54.552Z,4.18
2018-01-04T11:13:28.981Z,4.10
2018-01-04T11:16:04.185Z,1.73
2018-01-04T11:18:39.316Z,4.40
2018-01-04T11:21:13.911Z,2.35
2018-01-04T11:23:48.375Z,6.10
2018-01-04T11:26:22.880Z,1.12
2018-01-04T11:28:57.410Z,1.98
2018-01-04T11:31:31.752Z,6.55
2018-01-04T11:34:06.281Z,4.80
2018-01-04T11:36:40.778Z,5.87
2018-01-04T11:39:15.148Z,4.72
2018-01-04T11:41:49.633Z,6.28
2018-01-04T11:44:24.131Z,8.95
2018-01-04T11:46:58.618Z,5.10
2018-01-04T11:49:32.935Z,3.12
2018-01-04T11:52:07.473Z,5.97
2018-01-04T11:54:41.834Z,2.80
2018-01-04T11:57:16.260Z,3.42
2018-01-04T11:59:50.710Z,5.12
2018-01-04T12:02:25.041Z,6.00
2018-01-04T12:04:59.388Z,4.37
2018-01-04T12:07:33.683Z,4.93
2018-01-04T12:10:08.364Z,3.90
2018-01-04T12:12:42.876Z,1.90
2018-01-04T12:15:17.357Z,7.03
2018-01-04T12:17:52.485Z,1.00
2018-01-04T12:20:26.903Z,2.00
2018-01-04T12:23:01.431Z,14.32
2018-01-04T12:25:35.726Z,6.62
2018-01-04T12:28:10.161Z,6.62
2018-01-04T12:30:44.570Z,1.33
2018-01-04T12:33:18.915Z,8.02
2018-01-04T12:35:53.354Z,3.85
2018-01-04T12:38:27.825Z,4.10
2018-01-04T12:41:02.377Z,2.05
2018-01-04T12:43:36.813Z,2.85
2018-01-04T12:46:11.317Z,5.07
2018-01-04T12:48:45.829Z,1.60
2018-01-04T12:51:20.197Z,2.05
2018-01-04T12:53:55.294Z,0.68
2018-01-04T12:56:29.742Z,7.72
2018-01-04T12:59:04.252Z,2.58
2018-01-04T13:01:38.788Z,8.43
2018-01-04T13:04:13.271Z,6.80
2018-01-04T13:06:47.618Z,5.37
2018-01-04T13:09:22.097Z,1.73
2018-01-04T13:11:56.449Z,2.12
2018-01-04T13:14:30.859Z,5.12
2018-01-04T13:17:05.307Z,1.65
2018-01-04T13:19:39.753Z,1.20
2018-01-04T13:22:14.184Z,7.37
2018-01-04T13:24:48.674Z,6.35
2018-01-04T13:27:23.091Z,5.18
2018-01-04T13:29:58.414Z,2.22
2018-01-04T13:32:32.919Z,4.82
2018-01-04T13:35:07.433Z,4.65
2018-01-04T13:37:41.891Z,5.70
2018-01-04T13:40:16.313Z,3.40
2018-01-04T13:42:50.828Z,3.33
2018-01-04T13:45:25.249Z,8.32
2018-01-04T13:47:59.789Z,4.32
2018-01-04T13:50:34.340Z,2.65
2018-01-04T13:53:08.731Z,3.55
2018-01-04T13:55:44.000Z,8.02
2018-01-04T13:58:18.456Z,4.22
2018-01-04T14:00:53.660Z,8.18
2018-01-04T14:03:28.085Z,3.33
2018-01-04T14:06:03.172Z,3.87
2018-01-04T14:08:37.493Z,4.55
2018-01-04T14:11:12.022Z,5.70
2018-01-04T14:13:47.205Z,4.85
2018-01-04T14:16:21.556Z,12.25
2018-01-04T14:18:55.984Z,5.62
2018-01-04T14:21:30.383Z,13.55
2018-01-04T14:24:05.594Z,11.43
2018-01-04T14:26:40.017Z,8.55
2018-01-04T14:29:15.164Z,6.32
2018-01-04T14:31:50.365Z,12.70
2018-01-04T14:34:24.820Z,11.05
2018-01-04T14:37:00.039Z,10.93
2018-01-04T14:39:34.543Z,9.43
2018-01-04T14:42:09.005Z,7.82
2018-01-04T14:44:43.411Z,8.27
2018-01-04T14:47:17.733Z,12.63
2018-01-04T14:49:52.157Z,11.68
2018-01-04T14:52:27.285Z,8.30
2018-01-04T14:55:01.685Z,8.75
2018-01-04T14:57:36.172Z,8.20
2018-01-04T15:00:10.641Z,11.93
2018-01-04T15:02:45.882Z,11.63
2018-01-04T15:05:20.336Z,13.75
2018-01-04T15:07:54.689Z,13.32
2018-01-04T15:10:29.109Z,15.60
2018-01-04T15:13:03.488Z,13.50
2018-01-04T15:15:37.933Z,11.15
2018-01-04T15:18:12.287Z,13.75
2018-01-04T15:20:46.730Z,12.68
2018-01-04T15:23:21.944Z,10.93
2018-01-04T15:25:56.382Z,5.03
2018-01-04T15:28:30.871Z,11.07
2018-01-04T15:31:05.204Z,12.95
2018-01-04T15:33:39.631Z,10.90
2018-01-04T15:36:13.956Z,7.40
2018-01-04T15:38:48.298Z,7.10
2018-01-04T15:41:22.758Z,9.30
2018-01-04T15:43:57.118Z,16.67
2018-01-04T15:46:31.535Z,6.10
2018-01-04T15:49:05.983Z,10.48
2018-01-04T15:51:40.465Z,10.40
2018-01-04T15:54:15.610Z,8.40
2018-01-04T15:56:50.347Z,8.98
2018-01-04T15:59:24.801Z,7.25
2018-01-04T16:01:59.159Z,7.25
2018-01-04T16:04:33.667Z,9.35
2018-01-04T16:07:08.806Z,8.02
2018-01-04T16:09:43.280Z,8.80
2018-01-04T16:12:17.599Z,8.40
2018-01-04T16:14:52.049Z,6.37
2018-01-04T16:17:26.380Z,9.93
2018-01-04T16:20:00.803Z,7.22
2018-01-04T16:22:35.390Z,9.88
2018-01-04T16:25:09.835Z,9.63
2018-01-04T16:27:44.313Z,11.07
2018-01-04T16:30:18.607Z,12.37
2018-01-04T16:32:53.016Z,11.98
2018-01-04T16:35:27.523Z,14.52
2018-01-04T16:38:01.962Z,11.70
2018-01-04T16:40:36.481Z,9.43
2018-01-04T16:43:10.791Z,11.57
2018-01-04T16:45:46.034Z,15.25
2018-01-04T16:48:20.575Z,14.87
2018-01-04T16:50:54.956Z,10.10
2018-01-04T16:53:29.492Z,11.63
2018-01-04T16:56:03.959Z,11.10
2018-01-04T16:58:38.327Z,17.70
2018-01-04T17:01:12.651Z,12.68
2018-01-04T17:03:47.869Z,11.35
2018-01-04T17:06:22.431Z,9.70
2018-01-04T17:08:56.934Z,13.57
2018-01-04T17:11:31.297Z,11.73
2018-01-04T17:14:05.772Z,25.20
2018-01-04T17:16:40.111Z,18.40
2018-01-04T17:19:14.438Z,17.60
2018-01-04T17:21:48.973Z,14.48
2018-01-04T17:24:23.422Z,12.37
2018-01-04T17:26:58.691Z,12.70
2018-01-04T17:29:33.125Z,22.15
2018-01-04T17:32:07.561Z,29.17
2018-01-04T17:34:41.967Z,18.25
2018-01-04T17:37:16.310Z,20.83
2018-01-04T17:39:50.875Z,26.30
2018-01-04T17:42:25.398Z,17.70
2018-01-04T17:44:59.735Z,16.80
2018-01-04T17:47:34.137Z,18.90
2018-01-04T17:50:08.512Z,26.30
2018-01-04T17:52:43.026Z,20.35
2018-01-04T17:55:17.386Z,25.50
2018-01-04T17:57:51.797Z,26.45
2018-01-04T18:00:26.146Z,27.08
2018-01-04T18:03:01.387Z,21.90
2018-01-04T18:05:35.710Z,27.37
2018-01-04T18:08:10.028Z,36.70
2018-01-04T18:10:45.142Z,30.62
2018-01-04T18:13:19.497Z,32.20
2018-01-04T18:15:53.869Z,36.85
2018-01-04T18:18:28.372Z,24.85
2018-01-04T18:21:02.819Z,26.87
2018-01-04T18:23:37.303Z,25.58
2018-01-04T18:26:11.848Z,26.62
2018-01-04T18:28:46.299Z,23.75
2018-01-04T18:31:20.613Z,32.13
2018-01-04T18:33:55.745Z,37.83
2018-01-04T18:36:30.288Z,24.98
2018-01-04T18:39:05.499Z,28.35
2018-01-04T18:41:40.659Z,25.52
2018-01-04T18:44:15.163Z,18.08
2018-01-04T18:46:49.578Z,26.92
2018-01-04T18:49:24.028Z,29.23
2018-01-04T18:51:59.211Z,32.80
2018-01-04T18:54:33.641Z,28.20
2018-01-04T18:57:08.157Z,28.55
2018-01-04T18:59:42.613Z,36.97
2018-01-04T19:02:16.943Z,31.48
2018-01-04T19:04:52.243Z,30.65
2018-01-04T19:07:27.670Z,34.97
2018-01-04T19:10:02.948Z,34.92
2018-01-04T19:12:38.047Z,34.10
2018-01-04T19:15:13.224Z,39.53
2018-01-04T19:17:47.705Z,36.95
2018-01-04T19:20:22.202Z,29.37
2018-01-04T19:22:57.495Z,30.50
2018-01-04T19:25:32.752Z,44.72
2018-01-04T19:28:07.267Z,32.33
2018-01-04T19:30:41.566Z,41.65
2018-01-04T19:33:15.929Z,24.70
2018-01-04T19:35:50.407Z,33.47
2018-01-04T19:38:24.912Z,41.65
2018-01-04T19:40:59.315Z,42.75
2018-01-04T19:43:33.866Z,35.28
2018-01-04T19:46:08.313Z,49.72
2018-01-04T19:48:42.683Z,33.67
2018-01-04T19:51:17.050Z,50.92
2018-01-04T19:53:51.346Z,41.42
2018-01-04T19:56:25.821Z,52.20
2018-01-04T19:59:00.172Z,47.42
2018-01-04T20:04:38.354Z,40.42
2018-01-04T20:07:12.835Z,38.83
2018-01-04T20:09:47.397Z,42.65
2018-01-04T20:12:21.938Z,38.53
2018-01-04T20:14:56.631Z,45.50
2018-01-04T20:17:31.728Z,53.15
2018-01-04T20:20:06.109Z,53.30
2018-01-04T20:22:40.559Z,52.03
2018-01-04T20:25:14.927Z,44.58
2018-01-04T20:27:50.131Z,42.55
2018-01-04T20:30:24.523Z,45.60
2018-01-04T20:32:59.000Z,52.03
2018-01-04T20:35:33.298Z,31.80
2018-01-04T20:38:07.858Z,37.40
2018-01-04T20:40:42.377Z,50.58
2018-01-04T20:43:16.779Z,45.92
2018-01-04T20:45:51.300Z,56.20
2018-01-04T20:48:25.854Z,43.10
2018-01-04T20:54:05.815Z,35.15
2018-01-04T20:56:42.384Z,43.60
2018-01-04T20:59:16.894Z,34.60
2018-01-04T21:01:51.384Z,29.52
2018-01-04T21:04:25.833Z,36.97
2018-01-04T21:07:00.351Z,38.60
2018-01-04T21:09:34.712Z,43.15
2018-01-04T21:12:09.133Z,36.55
2018-01-04T21:14:44.527Z,32.05
2018-01-04T21:17:18.961Z,32.05
2018-01-04T21:19:53.389Z,30.45
2018-01-04T21:22:27.876Z,28.60
2018-01-04T21:25:02.411Z,26.40
2018-01-04T21:27:36.780Z,34.83
2018-01-04T21:30:11.266Z,36.78
2018-01-04T21:32:45.775Z,28.52
2018-01-04T21:35:20.260Z,31.33
2018-01-04T21:37:54.760Z,25.08
2018-01-04T21:40:29.904Z,30.27
2018-01-04T21:43:04.261Z,29.37
2018-01-04T21:45:38.754Z,28.35
2018-01-04T21:48:13.315Z,25.15
2018-01-04T21:50:47.785Z,24.70
2018-01-04T21:53:22.141Z,27.90
2018-01-04T21:55:56.633Z,33.85
2018-01-04T21:58:31.049Z,34.90
2018-01-04T22:01:05.598Z,25.73
2018-01-04T22:03:40.045Z,30.85
2018-01-04T22:06:14.531Z,40.20
2018-01-04T22:08:49.780Z,33.10
2018-01-04T22:11:24.318Z,35.72
2018-01-04T22:13:58.619Z,37.67
2018-01-04T22:16:33.145Z,41.22
2018-01-04T22:19:07.743Z,33.45
2018-01-04T22:21:42.166Z,29.42
2018-01-04T22:24:16.550Z,33.33
2018-01-04T22:26:50.987Z,40.58
2018-01-04T22:29:25.454Z,30.92
2018-01-04T22:31:59.989Z,31.05
2018-01-04T22:34:34.439Z,32.92
2018-01-04T22:37:09.721Z,36.38
2018-01-04T22:39:44.227Z,46.30
2018-01-04T22:42:18.788Z,32.25
2018-01-04T22:44:53.240Z,36.05
2018-01-04T22:47:27.665Z,28.60
2018-01-04T22:50:02.125Z,35.92
2018-01-04T22:52:36.465Z,26.30
2018-01-04T22:55:11.560Z,35.65
2018-01-04T22:57:45.912Z,36.45
2018-01-04T23:00:20.425Z,26.58
2018-01-04T23:02:54.941Z,28.17
2018-01-04T23:05:29.237Z,30.58
2018-01-04T23:08:03.797Z,27.98
2018-01-04T23:10:38.283Z,30.80
2018-01-04T23:13:12.691Z,25.98
2018-01-04T23:15:47.069Z,23.85
2018-01-04T23:18:21.478Z,28.33
2018-01-04T23:20:55.871Z,24.37
2018-01-04T23:23:30.401Z,24.02
2018-01-04T23:26:04.856Z,23.55
2018-01-04T23:28:39.285Z,25.08
2018-01-04T23:31:13.884Z,30.37
2018-01-04T23:33:48.240Z,23.30
2018-01-04T23:36:22.556Z,23.48
2018-01-04T23:38:57.105Z,30.25
2018-01-04T23:41:31.595Z,23.90
2018-01-04T23:44:05.952Z,26.60
2018-01-04T23:46:41.196Z,29.85
2018-01-04T23:49:15.619Z,23.45
2018-01-04T23:51:50.062Z,18.80
2018-01-04T23:54:25.557Z,16.60
2018-01-04T23:56:59.851Z,32.45
2018-01-04T23:59:34.307Z,20.55
